createdAt,value
2022-11-26T00:02:18.525Z,98761.31
2022-11-26T00:04:47.203Z,98766.69
2022-11-26T00:07:22.179Z,98767.53
2022-11-26T00:09:50.862Z,98772.06
2022-11-26T00:12:22.296Z,98772.91
2022-11-26T00:14:50.910Z,98782.81
2022-11-26T00:17:19.689Z,98782.81
2022-11-26T00:19:48.386Z,98782.81
2022-11-26T00:22:24.335Z,98783.66
2022-11-26T00:24:53.369Z,98784.63
2022-11-26T00:27:21.993Z,98798.06
2022-11-26T00:29:51.069Z,98791.88
2022-11-26T00:32:21.727Z,98796.25
2022-11-26T00:34:50.300Z,98798.06
2022-11-26T00:37:22.280Z,98810.69
2022-11-26T00:39:51.010Z,98805.31
2022-11-26T00:42:19.620Z,98818.75
2022-11-26T00:44:48.035Z,98818.75
2022-11-26T00:47:16.603Z,98822.25
2022-11-26T00:49:45.084Z,98821.44
2022-11-26T00:52:29.689Z,98809.84
2022-11-26T00:54:58.215Z,98815.22
2022-11-26T00:57:26.581Z,98817.06
2022-11-26T00:59:55.230Z,98814.38
2022-11-26T01:02:23.821Z,98812.53
2022-11-26T01:04:52.294Z,98817.06
2022-11-26T01:07:20.796Z,98822.44
2022-11-26T01:09:54.429Z,98827.81
2022-11-26T01:12:22.922Z,98827.00
2022-11-26T01:14:51.667Z,98820.59
2022-11-26T01:17:20.087Z,98826.16
2022-11-26T01:19:48.600Z,98838.56
2022-11-26T01:22:22.087Z,98830.50
2022-11-26T01:24:50.619Z,98838.56
2022-11-26T01:27:21.016Z,98826.16
2022-11-26T01:29:49.624Z,98828.66
2022-11-26T01:32:18.059Z,98827.97
2022-11-26T01:34:46.720Z,98843.13
2022-11-26T01:37:15.318Z,98831.53
2022-11-26T01:39:44.041Z,98835.88
2022-11-26T01:42:25.718Z,98836.91
2022-11-26T01:44:54.225Z,98837.75
2022-11-26T01:47:25.081Z,98841.41
2022-11-26T01:50:52.093Z,98841.41
2022-11-26T01:53:28.938Z,98843.13
2022-11-26T01:55:59.986Z,98835.19
2022-11-26T01:58:38.316Z,98829.81
2022-11-26T02:01:08.499Z,98838.72
2022-11-26T02:03:41.907Z,98835.19
2022-11-26T02:06:15.440Z,98840.56
2022-11-26T02:08:44.130Z,98830.66
2022-11-26T02:11:18.227Z,98827.13
2022-11-26T02:13:49.706Z,98839.59
2022-11-26T02:16:29.679Z,98833.53
2022-11-26T02:19:10.111Z,98834.38
2022-11-26T02:21:38.596Z,98838.91
2022-11-26T02:24:32.435Z,98843.44
2022-11-26T02:27:28.780Z,98845.13
2022-11-26T02:30:09.967Z,98849.66
2022-11-26T02:32:48.364Z,98841.59
2022-11-26T02:35:21.034Z,98850.50
2022-11-26T02:37:52.806Z,98848.63
2022-11-26T02:40:21.498Z,98853.19
2022-11-26T02:42:50.009Z,98853.19
2022-11-26T02:45:21.738Z,98849.66
2022-11-26T02:47:52.973Z,98847.81
2022-11-26T02:50:23.827Z,98850.66
2022-11-26T02:52:52.428Z,98848.81
2022-11-26T02:55:21.750Z,98851.50
2022-11-26T02:57:51.500Z,98857.72
2022-11-26T03:00:22.056Z,98849.66
2022-11-26T03:02:52.287Z,98855.03
2022-11-26T03:05:21.229Z,98850.66
2022-11-26T03:07:52.353Z,98845.28
2022-11-26T03:10:21.719Z,98851.50
2022-11-26T03:12:50.290Z,98847.13
2022-11-26T03:15:18.914Z,98848.81
2022-11-26T03:17:48.900Z,98853.34
2022-11-26T03:20:17.539Z,98855.03
2022-11-26T03:22:46.072Z,98852.50
2022-11-26T03:25:14.858Z,98854.19
2022-11-26T03:27:43.338Z,98857.88
2022-11-26T03:30:13.029Z,98861.41
2022-11-26T03:32:42.117Z,98861.41
2022-11-26T03:35:12.256Z,98864.94
2022-11-26T03:37:41.541Z,98865.78
2022-11-26T03:40:11.249Z,98859.56
2022-11-26T03:42:39.743Z,98869.47
2022-11-26T03:45:09.442Z,98870.31
2022-11-26T03:47:37.930Z,98876.53
2022-11-26T03:50:08.283Z,98868.63
2022-11-26T03:52:38.174Z,98868.63
2022-11-26T03:55:07.878Z,98871.31
2022-11-26T03:57:36.372Z,98873.16
2022-11-26T04:00:08.853Z,98870.47
2022-11-26T04:02:37.567Z,98875.84
2022-11-26T04:05:07.525Z,98882.91
2022-11-26T04:07:37.477Z,98870.47
2022-11-26T04:10:07.365Z,98870.47
2022-11-26T04:12:35.845Z,98874.84
2022-11-26T04:15:04.844Z,98871.50
2022-11-26T04:17:33.356Z,98879.56
2022-11-26T04:20:01.915Z,98878.53
2022-11-26T04:22:30.380Z,98883.91
2022-11-26T04:25:00.589Z,98895.69
2022-11-26T04:27:29.082Z,98900.03
2022-11-26T04:29:59.052Z,98900.03
2022-11-26T04:32:27.675Z,98900.88
2022-11-26T04:34:56.180Z,98895.50
2022-11-26T04:37:24.650Z,98908.09
2022-11-26T04:39:55.690Z,98900.19
2022-11-26T04:42:25.519Z,98913.63
2022-11-26T04:44:54.079Z,98914.50
2022-11-26T04:47:22.574Z,98902.88
2022-11-26T04:49:51.032Z,98912.66
2022-11-26T04:52:20.715Z,98909.13
2022-11-26T04:54:49.167Z,98916.31
2022-11-26T04:57:17.678Z,98909.13
2022-11-26T04:59:47.550Z,98914.50
2022-11-26T05:02:16.108Z,98911.81
2022-11-26T05:04:44.909Z,98920.72
2022-11-26T05:07:13.490Z,98921.69
2022-11-26T05:09:42.045Z,98925.25
2022-11-26T05:12:11.311Z,98929.75
2022-11-26T05:14:40.345Z,98930.63
2022-11-26T05:17:10.320Z,98936.97
2022-11-26T05:19:38.951Z,98936.00
2022-11-26T05:22:07.586Z,98931.59
2022-11-26T05:24:38.299Z,98939.66
2022-11-26T05:27:06.972Z,98942.34
2022-11-26T05:29:35.437Z,98943.38
2022-11-26T05:32:04.023Z,98940.50
2022-11-26T05:34:34.146Z,98940.50
2022-11-26T05:37:02.822Z,98937.81
2022-11-26T05:39:31.420Z,98940.50
2022-11-26T05:42:03.608Z,98945.03
2022-11-26T05:44:34.918Z,98952.13
2022-11-26T05:47:03.448Z,98955.78
2022-11-26T05:49:33.336Z,98954.97
2022-11-26T05:52:03.626Z,98956.63
2022-11-26T05:54:32.032Z,98961.19
2022-11-26T05:57:00.660Z,98966.56
2022-11-26T05:59:29.629Z,98965.72
2022-11-26T06:01:58.222Z,98976.47
2022-11-26T06:04:26.944Z,98971.94
2022-11-26T06:06:56.894Z,98980.81
2022-11-26T06:09:25.434Z,98976.47
2022-11-26T06:11:54.096Z,98977.31
2022-11-26T06:14:22.705Z,98975.63
2022-11-26T06:16:51.280Z,98981.84
2022-11-26T06:19:19.957Z,98986.38
2022-11-26T06:21:48.595Z,98979.31
2022-11-26T06:24:18.581Z,98985.53
2022-11-26T06:26:47.344Z,98985.38
2022-11-26T06:29:16.216Z,98989.06
2022-11-26T06:31:44.729Z,98988.06
2022-11-26T06:34:13.193Z,98997.97
2022-11-26T06:36:41.871Z,98993.44
2022-11-26T06:39:11.060Z,98992.59
2022-11-26T06:41:41.188Z,98997.97
2022-11-26T06:44:09.670Z,98997.13
2022-11-26T06:46:38.235Z,99000.81
2022-11-26T06:49:07.072Z,98991.75
2022-11-26T06:51:37.198Z,99009.56
2022-11-26T06:54:05.991Z,99013.06
2022-11-26T06:56:35.767Z,99014.94
2022-11-26T06:59:05.675Z,99022.00
2022-11-26T07:01:34.221Z,99020.31
2022-11-26T07:04:02.749Z,99030.06
2022-11-26T07:06:33.675Z,99028.38
2022-11-26T07:09:05.522Z,99031.06
2022-11-26T07:11:34.385Z,99041.81
2022-11-26T07:14:02.982Z,99041.81
2022-11-26T07:16:32.943Z,99041.81
2022-11-26T07:19:03.094Z,99047.19
2022-11-26T07:21:32.054Z,99038.28
2022-11-26T07:24:00.534Z,99039.13
2022-11-26T07:26:31.119Z,99047.19
2022-11-26T07:28:59.738Z,99047.19
2022-11-26T07:31:28.244Z,99049.03
2022-11-26T07:33:59.127Z,99048.19
2022-11-26T07:36:28.957Z,99052.56
2022-11-26T07:38:57.735Z,99051.56
2022-11-26T07:41:26.610Z,99048.03
2022-11-26T07:43:55.176Z,99051.56
2022-11-26T07:46:25.985Z,99063.16
2022-11-26T07:48:55.655Z,99061.47
2022-11-26T07:51:26.653Z,99057.94
2022-11-26T07:53:55.511Z,99069.84
2022-11-26T07:56:23.989Z,99066.31
2022-11-26T07:58:54.080Z,99068.31
2022-11-26T08:01:24.344Z,99076.38
2022-11-26T08:03:53.043Z,99074.66
2022-11-26T08:06:22.939Z,99076.38
2022-11-26T08:08:54.015Z,99073.53
2022-11-26T08:11:24.316Z,99077.91
2022-11-26T08:13:54.833Z,99083.28
2022-11-26T08:16:23.388Z,99083.28
2022-11-26T08:18:54.880Z,99088.50
2022-11-26T08:21:23.482Z,99089.66
2022-11-26T08:23:54.107Z,99085.97
2022-11-26T08:26:29.332Z,99088.50
2022-11-26T08:29:01.651Z,99088.66
2022-11-26T08:31:30.179Z,99086.81
2022-11-26T08:34:01.797Z,99083.97
2022-11-26T08:36:30.818Z,99092.88
2022-11-26T08:39:01.591Z,99095.25
2022-11-26T08:41:30.126Z,99100.63
2022-11-26T08:44:07.544Z,99098.94
2022-11-26T08:46:37.107Z,99101.63
2022-11-26T08:49:05.747Z,99107.84
2022-11-26T08:51:34.512Z,99101.50
2022-11-26T08:54:04.659Z,99108.53
2022-11-26T08:56:34.207Z,99122.13
2022-11-26T08:59:02.822Z,99112.38
2022-11-26T09:01:33.302Z,99120.44
2022-11-26T09:04:03.331Z,99126.50
2022-11-26T09:06:33.954Z,99127.50
2022-11-26T09:09:18.111Z,99130.88
2022-11-26T09:11:49.211Z,99123.81
2022-11-26T09:14:19.481Z,99126.50
2022-11-26T09:16:48.168Z,99125.50
2022-11-26T09:19:17.882Z,99129.91
2022-11-26T09:21:47.085Z,99129.72
2022-11-26T09:24:17.657Z,99129.91
2022-11-26T09:26:46.277Z,99129.91
2022-11-26T09:29:15.499Z,99133.75
2022-11-26T09:32:07.630Z,99134.25
2022-11-26T09:34:33.175Z,99134.94
2022-11-26T09:37:01.829Z,99141.63
2022-11-26T09:39:32.184Z,99133.41
2022-11-26T09:42:05.849Z,99139.63
2022-11-26T09:44:55.362Z,99134.25
2022-11-26T09:47:24.690Z,99126.34
2022-11-26T09:50:05.260Z,99136.44
2022-11-26T09:52:38.178Z,99130.88
2022-11-26T09:55:15.856Z,99140.66
2022-11-26T09:57:45.682Z,99147.53
2022-11-26T10:00:27.674Z,99143.16
2022-11-26T10:02:57.520Z,99138.81
2022-11-26T10:05:39.044Z,99132.88
2022-11-26T10:08:22.533Z,99140.66
2022-11-26T10:11:01.137Z,99138.63
2022-11-26T10:13:39.938Z,99141.81
2022-11-26T10:16:13.921Z,99141.50
2022-11-26T10:18:45.599Z,99130.38
2022-11-26T10:21:32.386Z,99138.81
2022-11-26T10:24:16.575Z,99140.78
2022-11-26T10:26:46.658Z,99147.69
2022-11-26T10:29:21.821Z,99144.84
2022-11-26T10:31:53.173Z,99152.91
2022-11-26T10:34:26.589Z,99151.09
2022-11-26T10:36:58.637Z,99141.31
2022-11-26T10:39:28.543Z,99141.63
2022-11-26T10:41:58.366Z,99136.25
2022-11-26T10:44:40.409Z,99139.63
2022-11-26T10:47:27.910Z,99136.09
2022-11-26T10:49:58.500Z,99140.66
2022-11-26T10:52:29.348Z,99132.88
2022-11-26T10:55:21.494Z,99132.59
2022-11-26T10:57:53.447Z,99134.25
2022-11-26T11:00:35.889Z,99130.88
2022-11-26T11:03:05.141Z,99135.09
2022-11-26T11:05:34.660Z,99134.25
2022-11-26T11:08:03.222Z,99136.94
2022-11-26T11:10:31.927Z,99136.94
2022-11-26T11:13:12.013Z,99140.47
2022-11-26T11:15:41.276Z,99129.72
2022-11-26T11:18:19.485Z,99136.94
2022-11-26T11:20:54.111Z,99134.25
2022-11-26T11:23:39.991Z,99144.00
2022-11-26T11:26:18.299Z,99134.78
2022-11-26T11:28:51.054Z,99136.94
2022-11-26T11:31:20.938Z,99135.94
2022-11-26T11:33:49.853Z,99143.03
2022-11-26T11:36:27.922Z,99139.19
2022-11-26T11:38:58.323Z,99146.38
2022-11-26T11:41:31.013Z,99142.69
2022-11-26T11:44:05.385Z,99144.53
2022-11-26T11:47:21.814Z,99151.91
2022-11-26T11:50:01.071Z,99154.44
2022-11-26T11:52:35.767Z,99151.75
2022-11-26T11:55:11.322Z,99151.75
2022-11-26T11:57:55.677Z,99159.16
2022-11-26T12:00:28.374Z,99151.22
2022-11-26T12:03:31.934Z,99156.59
2022-11-26T12:06:17.277Z,99158.28
2022-11-26T12:08:56.707Z,99152.06
2022-11-26T12:11:33.372Z,99157.44
2022-11-26T12:14:04.443Z,99159.16
2022-11-26T12:16:36.645Z,99152.91
2022-11-26T12:19:08.045Z,99157.44
2022-11-26T12:21:39.284Z,99161.84
2022-11-26T12:24:10.873Z,99159.28
2022-11-26T12:26:41.580Z,99165.50
2022-11-26T12:29:13.315Z,99165.50
2022-11-26T12:31:46.588Z,99170.88
2022-11-26T12:34:24.627Z,99163.84
2022-11-26T12:36:56.257Z,99163.00
2022-11-26T12:39:37.773Z,99168.38
2022-11-26T12:42:10.070Z,99161.13
2022-11-26T12:44:41.096Z,99167.53
2022-11-26T12:47:18.493Z,99164.84
2022-11-26T12:49:53.380Z,99162.16
2022-11-26T12:52:31.311Z,99162.31
2022-11-26T12:55:05.374Z,99167.53
2022-11-26T12:57:35.311Z,99166.66
2022-11-26T13:00:06.941Z,99166.66
2022-11-26T13:02:38.594Z,99173.88
2022-11-26T13:05:07.780Z,99173.88
2022-11-26T13:08:03.063Z,99166.53
2022-11-26T13:10:47.617Z,99169.19
2022-11-26T13:13:20.808Z,99169.19
2022-11-26T13:15:54.765Z,99172.72
2022-11-26T13:18:30.234Z,99167.34
2022-11-26T13:21:10.250Z,99174.41
2022-11-26T13:23:54.191Z,99178.94
2022-11-26T13:26:41.537Z,99187.00
2022-11-26T13:29:48.279Z,99182.47
2022-11-26T13:32:53.007Z,99182.47
2022-11-26T13:35:35.001Z,99187.84
2022-11-26T13:38:18.904Z,99190.72
2022-11-26T13:41:30.898Z,99199.47
2022-11-26T13:44:28.268Z,99188.88
2022-11-26T13:46:57.447Z,99187.00
2022-11-26T13:49:29.720Z,99194.09
2022-11-26T13:52:01.204Z,99196.78
2022-11-26T13:54:31.456Z,99198.47
2022-11-26T13:57:01.759Z,99199.28
2022-11-26T13:59:30.272Z,99198.47
2022-11-26T14:01:59.449Z,99196.59
2022-11-26T14:05:01.488Z,99201.97
2022-11-26T14:07:31.449Z,99202.16
2022-11-26T14:10:01.114Z,99200.44
2022-11-26T14:13:12.889Z,99199.63
2022-11-26T14:15:56.939Z,99206.66
2022-11-26T14:19:00.849Z,99209.66
2022-11-26T14:21:30.675Z,99208.69
2022-11-26T14:24:01.440Z,99210.69
2022-11-26T14:26:34.324Z,99211.38
2022-11-26T14:29:14.375Z,99210.53
2022-11-26T14:31:46.300Z,99205.00
2022-11-26T14:34:17.140Z,99215.03
2022-11-26T14:36:57.022Z,99221.28
2022-11-26T14:39:27.140Z,99210.53
2022-11-26T14:42:01.926Z,99215.03
2022-11-26T14:44:34.194Z,99225.97
2022-11-26T14:47:09.498Z,99220.44
2022-11-26T14:49:39.382Z,99229.63
2022-11-26T14:52:24.672Z,99237.72
2022-11-26T14:54:56.136Z,99233.19
2022-11-26T14:57:27.071Z,99225.97
2022-11-26T15:00:00.056Z,99228.50
2022-11-26T15:02:30.713Z,99241.09
2022-11-26T15:05:01.528Z,99236.56
2022-11-26T15:07:30.295Z,99245.50
2022-11-26T15:10:18.299Z,99241.94
2022-11-26T15:12:47.012Z,99246.31
2022-11-26T15:15:17.744Z,99249.84
2022-11-26T15:17:48.023Z,99248.69
2022-11-26T15:20:17.763Z,99246.31
2022-11-26T15:22:50.472Z,99251.72
2022-11-26T15:25:22.515Z,99244.47
2022-11-26T15:27:56.256Z,99254.53
2022-11-26T15:30:27.115Z,99253.56
2022-11-26T15:33:00.938Z,99251.53
2022-11-26T15:35:29.861Z,99256.59
2022-11-26T15:37:58.380Z,99254.78
2022-11-26T15:40:31.714Z,99253.75
2022-11-26T15:43:02.657Z,99258.31
2022-11-26T15:45:38.134Z,99261.13
2022-11-26T15:48:07.482Z,99261.13
2022-11-26T15:50:38.418Z,99273.59
2022-11-26T15:53:09.225Z,99269.06
2022-11-26T15:55:39.061Z,99269.06
2022-11-26T15:58:10.421Z,99263.81
2022-11-26T16:00:40.450Z,99272.72
2022-11-26T16:03:42.122Z,99279.81
2022-11-26T16:06:30.601Z,99280.78
2022-11-26T16:09:06.162Z,99278.97
2022-11-26T16:11:37.111Z,99291.53
2022-11-26T16:14:34.982Z,99293.25
2022-11-26T16:17:08.290Z,99287.19
2022-11-26T16:19:38.016Z,99290.88
2022-11-26T16:22:07.014Z,99299.59
2022-11-26T16:24:38.697Z,99297.78
2022-11-26T16:27:28.641Z,99303.69
2022-11-26T16:29:57.669Z,99298.31
2022-11-26T16:32:26.227Z,99296.63
2022-11-26T16:34:54.678Z,99301.31
2022-11-26T16:37:24.388Z,99309.38
2022-11-26T16:39:54.793Z,99304.69
2022-11-26T16:42:25.041Z,99308.22
2022-11-26T16:44:53.606Z,99311.06
2022-11-26T16:47:25.131Z,99309.38
2022-11-26T16:49:53.944Z,99309.38
2022-11-26T16:52:22.633Z,99318.28
2022-11-26T16:54:51.314Z,99325.50
2022-11-26T16:57:21.964Z,99331.72
2022-11-26T16:59:53.945Z,99335.44
2022-11-26T17:02:24.341Z,99338.13
2022-11-26T17:04:52.927Z,99338.25
2022-11-26T17:07:23.408Z,99349.31
2022-11-26T17:09:52.246Z,99345.63
2022-11-26T17:12:22.782Z,99360.78
2022-11-26T17:17:30.054Z,99360.91
2022-11-26T17:19:58.566Z,99370.81
2022-11-26T17:22:27.164Z,99359.22
2022-11-26T17:24:55.630Z,99364.59
2022-11-26T17:27:24.479Z,99370.13
2022-11-26T17:29:55.302Z,99363.78
2022-11-26T17:32:23.772Z,99368.13
2022-11-26T17:34:52.264Z,99379.03
2022-11-26T17:37:24.330Z,99377.22
2022-11-26T17:39:52.901Z,99384.41
2022-11-26T17:42:22.877Z,99378.19
2022-11-26T17:44:51.697Z,99384.56
2022-11-26T17:47:24.550Z,99385.41
2022-11-26T17:49:53.395Z,99382.88
2022-11-26T17:52:22.966Z,99392.63
2022-11-26T17:54:51.457Z,99385.56
2022-11-26T17:57:20.367Z,99386.56
2022-11-26T17:59:48.823Z,99395.47
2022-11-26T18:02:17.393Z,99386.56
2022-11-26T18:04:47.601Z,99393.78
2022-11-26T18:07:18.323Z,99389.25
2022-11-26T18:09:47.211Z,99394.50
2022-11-26T18:12:24.964Z,99392.63
2022-11-26T18:14:54.383Z,99392.78
2022-11-26T18:17:22.979Z,99399.00
2022-11-26T18:19:52.775Z,99403.41
2022-11-26T18:22:24.559Z,99399.88
2022-11-26T18:24:57.000Z,99400.69
2022-11-26T18:27:27.234Z,99407.06
2022-11-26T18:29:55.891Z,99408.78
2022-11-26T18:32:24.628Z,99409.59
2022-11-26T18:34:54.566Z,99412.31
2022-11-26T18:37:24.703Z,99401.69
2022-11-26T18:39:53.134Z,99402.56
2022-11-26T18:42:36.591Z,99414.16
2022-11-26T18:45:08.196Z,99404.22
2022-11-26T18:47:37.484Z,99416.84
2022-11-26T18:50:09.395Z,99412.44
2022-11-26T18:52:39.895Z,99422.22
2022-11-26T18:55:09.725Z,99428.28
2022-11-26T18:57:38.242Z,99428.28
2022-11-26T19:00:11.095Z,99433.66
2022-11-26T19:02:39.760Z,99421.19
2022-11-26T19:05:10.096Z,99429.25
2022-11-26T19:07:38.751Z,99433.81
2022-11-26T19:10:09.071Z,99426.56
2022-11-26T19:12:41.971Z,99440.03
2022-11-26T19:15:11.523Z,99429.25
2022-11-26T19:17:39.988Z,99441.03
2022-11-26T19:20:10.751Z,99442.72
2022-11-26T19:22:41.514Z,99439.31
2022-11-26T19:25:10.649Z,99446.41
2022-11-26T19:27:39.695Z,99448.09
2022-11-26T19:30:09.955Z,99454.59
2022-11-26T19:32:38.459Z,99455.75
2022-11-26T19:35:09.697Z,99453.75
2022-11-26T19:37:38.300Z,99453.75
2022-11-26T19:40:09.222Z,99454.59
2022-11-26T19:42:37.768Z,99457.16
2022-11-26T19:45:07.229Z,99458.00
2022-11-26T19:47:35.813Z,99452.47
2022-11-26T19:50:04.527Z,99466.78
2022-11-26T19:52:34.469Z,99471.31
2022-11-26T19:55:03.111Z,99464.22
2022-11-26T19:57:31.666Z,99474.97
2022-11-26T20:00:00.221Z,99465.06
2022-11-26T20:02:30.392Z,99477.53
2022-11-26T20:04:59.032Z,99478.50
2022-11-26T20:07:27.888Z,99485.72
2022-11-26T20:09:58.075Z,99485.88
2022-11-26T20:12:26.937Z,99487.56
2022-11-26T20:14:55.569Z,99485.72
2022-11-26T20:17:24.544Z,99485.72
2022-11-26T20:19:53.136Z,99496.47
2022-11-26T20:22:22.019Z,99494.78
2022-11-26T20:24:50.709Z,99490.41
2022-11-26T20:27:20.712Z,99492.09
2022-11-26T20:29:49.456Z,99489.41
2022-11-26T20:32:18.353Z,99486.72
2022-11-26T20:34:47.378Z,99484.03
2022-11-26T20:37:16.261Z,99487.72
2022-11-26T20:39:45.222Z,99495.78
2022-11-26T20:42:15.460Z,99503.00
2022-11-26T20:44:45.285Z,99503.84
2022-11-26T20:47:14.142Z,99504.84
2022-11-26T20:49:43.412Z,99508.38
2022-11-26T20:52:12.071Z,99504.84
2022-11-26T20:54:41.276Z,99504.00
2022-11-26T20:57:18.183Z,99499.47
2022-11-26T20:59:51.797Z,99505.69
2022-11-26T21:02:20.682Z,99506.69
2022-11-26T21:04:49.337Z,99511.06
2022-11-26T21:07:17.816Z,99524.50
2022-11-26T21:09:47.794Z,99514.75
2022-11-26T21:12:16.412Z,99512.06
2022-11-26T21:14:44.881Z,99520.25
2022-11-26T21:17:15.484Z,99518.28
2022-11-26T21:19:44.327Z,99513.91
2022-11-26T21:22:12.863Z,99519.13
2022-11-26T21:24:41.516Z,99514.75
2022-11-26T21:27:10.566Z,99510.34
2022-11-26T21:29:39.361Z,99518.41
2022-11-26T21:32:09.175Z,99516.59
2022-11-26T21:34:39.609Z,99516.59
2022-11-26T21:37:08.203Z,99510.34
2022-11-26T21:39:37.333Z,99517.56
2022-11-26T21:42:06.461Z,99517.56
2022-11-26T21:44:35.085Z,99512.19
2022-11-26T21:47:04.049Z,99519.44
2022-11-26T21:49:33.443Z,99522.13
2022-11-26T21:52:03.537Z,99514.19
2022-11-26T21:54:32.034Z,99519.44
2022-11-26T21:57:00.933Z,99534.72
2022-11-26T21:59:29.517Z,99523.97
2022-11-26T22:01:58.700Z,99526.66
2022-11-26T22:04:27.397Z,99532.03
2022-11-26T22:06:56.191Z,99524.81
2022-11-26T22:09:26.286Z,99532.03
2022-11-26T22:11:55.159Z,99532.88
2022-11-26T22:14:23.974Z,99527.50
2022-11-26T22:16:52.886Z,99532.88
2022-11-26T22:19:21.567Z,99530.19
2022-11-26T22:21:50.207Z,99532.03
2022-11-26T22:24:20.301Z,99531.19
2022-11-26T22:26:50.231Z,99545.47
2022-11-26T22:29:20.255Z,99545.47
2022-11-26T22:31:50.413Z,99540.09
2022-11-26T22:34:22.049Z,99536.56
2022-11-26T22:36:50.985Z,99532.03
2022-11-26T22:39:20.304Z,99526.78
2022-11-26T22:41:50.340Z,99528.63
2022-11-26T22:44:18.901Z,99532.16
2022-11-26T22:46:47.944Z,99532.16
2022-11-26T22:49:19.017Z,99526.78
2022-11-26T22:51:48.161Z,99530.31
2022-11-26T22:54:18.024Z,99532.16
2022-11-26T22:56:46.458Z,99528.63
2022-11-26T22:59:16.325Z,99532.16
2022-11-26T23:01:44.769Z,99533.00
2022-11-26T23:04:13.389Z,99535.69
2022-11-26T23:06:41.984Z,99532.16
2022-11-26T23:09:10.839Z,99532.16
2022-11-26T23:11:41.590Z,99527.63
2022-11-26T23:14:11.997Z,99534.72
2022-11-26T23:16:43.084Z,99532.16
2022-11-26T23:19:14.924Z,99537.53
2022-11-26T23:21:44.848Z,99535.84
2022-11-26T23:24:13.911Z,99535.84
2022-11-26T23:26:42.384Z,99534.00
2022-11-26T23:29:11.132Z,99536.69
2022-11-26T23:31:42.642Z,99538.53
2022-11-26T23:34:11.560Z,99534.16
2022-11-26T23:36:40.320Z,99531.59
2022-11-26T23:39:10.931Z,99537.69
2022-11-26T23:41:39.430Z,99534.16
2022-11-26T23:44:07.913Z,99535.16
2022-11-26T23:46:36.546Z,99533.31
2022-11-26T23:49:06.627Z,99530.59
2022-11-26T23:51:35.310Z,99520.00
2022-11-26T23:54:03.765Z,99522.53
2022-11-26T23:56:34.091Z,99522.53
2022-11-26T23:59:03.964Z,99527.91
